createdAt,value
2022-10-11T00:00:40.881Z,0.00
2022-10-11T00:01:40.988Z,0.00
2022-10-11T00:02:40.869Z,0.00
2022-10-11T00:03:40.837Z,0.00
2022-10-11T00:04:40.905Z,0.00
2022-10-11T00:05:40.806Z,0.00
2022-10-11T00:06:40.857Z,0.00
2022-10-11T00:07:40.783Z,0.00
2022-10-11T00:08:40.753Z,0.00
2022-10-11T00:09:40.772Z,0.00
2022-10-11T00:10:40.741Z,0.00
2022-10-11T00:11:41.715Z,0.00
2022-10-11T00:12:40.695Z,0.00
2022-10-11T00:13:40.683Z,0.00
2022-10-11T00:14:40.805Z,0.00
2022-10-11T00:15:40.651Z,0.00
2022-10-11T00:16:40.620Z,0.00
2022-10-11T00:17:40.681Z,0.00
2022-10-11T00:18:40.627Z,0.00
2022-10-11T00:19:40.596Z,0.00
2022-10-11T00:20:40.553Z,0.00
2022-10-11T00:21:40.541Z,0.00
2022-10-11T00:22:40.529Z,0.00
2022-10-11T00:23:40.505Z,0.00
2022-10-11T00:24:40.630Z,0.00
2022-10-11T00:25:40.544Z,0.00
2022-10-11T00:26:45.734Z,0.00
2022-10-11T00:27:42.470Z,0.00
2022-10-11T00:28:40.627Z,0.00
2022-10-11T00:29:40.440Z,0.00
2022-10-11T00:30:40.390Z,0.00
2022-10-11T00:31:40.376Z,0.00
2022-10-11T00:32:40.366Z,0.00
2022-10-11T00:33:40.322Z,0.00
2022-10-11T00:34:40.475Z,0.00
2022-10-11T00:35:40.294Z,0.00
2022-10-11T00:36:40.325Z,0.00
2022-10-11T00:37:40.260Z,0.00
2022-10-11T00:38:40.260Z,0.00
2022-10-11T00:39:40.314Z,0.00
2022-10-11T00:40:40.190Z,0.00
2022-10-11T00:41:40.172Z,0.00
2022-10-11T00:42:40.194Z,0.00
2022-10-11T00:43:40.197Z,0.00
2022-10-11T00:44:40.232Z,0.00
2022-10-11T00:45:40.142Z,0.00
2022-10-11T00:46:40.105Z,0.00
2022-10-11T00:47:40.077Z,0.00
2022-10-11T00:48:40.082Z,0.00
2022-10-11T00:49:40.082Z,0.00
2022-10-11T00:50:40.090Z,0.00
2022-10-11T00:51:40.032Z,0.00
2022-10-11T00:52:40.006Z,0.00
2022-10-11T00:53:39.980Z,0.00
2022-10-11T00:54:40.103Z,0.00
2022-10-11T00:55:39.990Z,0.00
2022-10-11T00:56:39.932Z,0.00
2022-10-11T00:57:39.930Z,0.00
2022-10-11T00:58:39.909Z,0.00
2022-10-11T00:59:39.911Z,0.00
2022-10-11T01:00:39.868Z,0.00
2022-10-11T01:01:39.911Z,0.00
2022-10-11T01:02:39.823Z,0.00
2022-10-11T01:03:39.836Z,0.00
2022-10-11T01:04:39.865Z,0.00
2022-10-11T01:05:39.789Z,0.00
2022-10-11T01:06:39.752Z,0.00
2022-10-11T01:07:39.746Z,0.00
2022-10-11T01:08:39.729Z,0.00
2022-10-11T01:09:39.763Z,0.00
2022-10-11T01:10:39.724Z,0.00
2022-10-11T01:11:39.751Z,0.00
2022-10-11T01:12:39.756Z,0.00
2022-10-11T01:13:40.636Z,0.00
2022-10-11T01:14:39.672Z,0.00
2022-10-11T01:15:39.598Z,0.00
2022-10-11T01:16:39.601Z,0.00
2022-10-11T01:17:39.571Z,0.00
2022-10-11T01:18:39.563Z,0.00
2022-10-11T01:19:39.579Z,0.00
2022-10-11T01:20:39.555Z,0.00
2022-10-11T01:21:39.529Z,0.00
2022-10-11T01:22:39.502Z,0.00
2022-10-11T01:23:39.609Z,0.00
2022-10-11T01:24:39.587Z,0.00
2022-10-11T01:25:39.515Z,0.00
2022-10-11T01:26:39.418Z,0.00
2022-10-11T01:27:39.434Z,0.00
2022-10-11T01:28:39.447Z,0.00
2022-10-11T01:29:39.419Z,0.00
2022-10-11T01:30:39.383Z,0.00
2022-10-11T01:31:39.343Z,0.00
2022-10-11T01:32:39.306Z,0.00
2022-10-11T01:33:39.318Z,0.00
2022-10-11T01:34:39.381Z,0.00
2022-10-11T01:35:39.315Z,0.00
2022-10-11T01:36:39.274Z,0.00
2022-10-11T01:37:39.240Z,0.00
2022-10-11T01:38:39.245Z,0.00
2022-10-11T01:39:39.189Z,0.00
2022-10-11T01:40:39.232Z,0.00
2022-10-11T01:41:39.165Z,0.00
2022-10-11T01:42:39.151Z,0.00
2022-10-11T01:43:39.108Z,0.00
2022-10-11T01:44:39.157Z,0.00
2022-10-11T01:45:39.315Z,0.00
2022-10-11T01:46:39.102Z,0.00
2022-10-11T01:47:39.055Z,0.00
2022-10-11T01:48:39.043Z,0.00
2022-10-11T01:49:39.007Z,0.00
2022-10-11T01:50:39.031Z,0.00
2022-10-11T01:51:38.981Z,0.00
2022-10-11T01:52:38.975Z,0.00
2022-10-11T01:53:39.932Z,0.00
2022-10-11T01:55:07.684Z,0.00
2022-10-11T01:55:40.948Z,0.00
2022-10-11T01:56:38.938Z,0.00
2022-10-11T01:57:38.880Z,0.00
2022-10-11T01:58:38.888Z,0.00
2022-10-11T01:59:38.873Z,0.00
2022-10-11T02:00:38.871Z,0.00
2022-10-11T02:01:39.872Z,0.00
2022-10-11T02:02:38.796Z,0.00
2022-10-11T02:03:38.784Z,0.00
2022-10-11T02:04:38.805Z,0.00
2022-10-11T02:05:38.787Z,0.00
2022-10-11T02:06:38.734Z,0.00
2022-10-11T02:07:38.800Z,0.00
2022-10-11T02:08:38.694Z,0.00
2022-10-11T02:09:38.693Z,0.00
2022-10-11T02:10:38.693Z,0.00
2022-10-11T02:11:38.654Z,0.00
2022-10-11T02:12:38.667Z,0.00
2022-10-11T02:13:38.614Z,0.00
2022-10-11T02:14:38.650Z,0.00
2022-10-11T02:15:38.614Z,0.00
2022-10-11T02:16:38.545Z,0.00
2022-10-11T02:17:38.565Z,0.00
2022-10-11T02:18:38.629Z,0.00
2022-10-11T02:19:38.496Z,0.00
2022-10-11T02:20:38.508Z,0.00
2022-10-11T02:21:38.474Z,0.00
2022-10-11T02:22:38.483Z,0.00
2022-10-11T02:23:38.450Z,0.00
2022-10-11T02:24:38.448Z,0.00
2022-10-11T02:25:38.441Z,0.00
2022-10-11T02:26:38.388Z,0.00
2022-10-11T02:27:38.367Z,0.00
2022-10-11T02:28:38.404Z,0.00
2022-10-11T02:29:38.366Z,0.00
2022-10-11T02:30:38.362Z,0.00
2022-10-11T02:31:38.308Z,0.00
2022-10-11T02:32:38.275Z,0.00
2022-10-11T02:33:38.286Z,0.00
2022-10-11T02:34:38.235Z,0.00
2022-10-11T02:35:38.259Z,0.00
2022-10-11T02:36:38.213Z,0.00
2022-10-11T02:37:38.199Z,0.00
2022-10-11T02:38:38.177Z,0.00
2022-10-11T02:39:38.174Z,0.00
2022-10-11T02:40:38.272Z,0.00
2022-10-11T02:41:38.137Z,0.00
2022-10-11T02:42:38.113Z,0.00
2022-10-11T02:43:38.105Z,0.00
2022-10-11T02:44:38.100Z,0.00
2022-10-11T02:45:38.107Z,0.00
2022-10-11T02:46:38.068Z,0.00
2022-10-11T02:47:38.035Z,0.00
2022-10-11T02:48:38.022Z,0.00
2022-10-11T02:49:37.992Z,0.00
2022-10-11T02:50:38.003Z,0.00
2022-10-11T02:51:38.058Z,0.00
2022-10-11T02:52:37.951Z,0.00
2022-10-11T02:53:37.927Z,0.00
2022-10-11T02:54:37.912Z,0.00
2022-10-11T02:55:37.940Z,0.00
2022-10-11T02:56:37.888Z,0.00
2022-10-11T02:57:37.883Z,0.00
2022-10-11T02:58:37.866Z,0.00
2022-10-11T02:59:37.898Z,0.00
2022-10-11T03:00:37.836Z,0.00
2022-10-11T03:01:37.877Z,0.00
2022-10-11T03:02:37.773Z,0.00
2022-10-11T03:03:37.780Z,0.00
2022-10-11T03:04:37.759Z,0.00
2022-10-11T03:05:37.783Z,0.00
2022-10-11T03:06:37.724Z,0.00
2022-10-11T03:07:37.703Z,0.00
2022-10-11T03:08:37.701Z,0.00
2022-10-11T03:09:37.659Z,0.00
2022-10-11T03:10:37.675Z,0.00
2022-10-11T03:11:37.623Z,0.00
2022-10-11T03:12:37.592Z,0.00
2022-10-11T03:13:37.599Z,0.00
2022-10-11T03:14:37.559Z,0.00
2022-10-11T03:15:37.571Z,0.00
2022-10-11T03:16:37.530Z,0.00
2022-10-11T03:17:37.777Z,0.00
2022-10-11T03:18:37.492Z,0.00
2022-10-11T03:19:37.479Z,0.00
2022-10-11T03:20:37.509Z,0.00
2022-10-11T03:21:37.441Z,0.00
2022-10-11T03:22:37.425Z,0.00
2022-10-11T03:23:37.411Z,0.00
2022-10-11T03:24:37.391Z,0.00
2022-10-11T03:25:37.466Z,0.00
2022-10-11T03:26:37.381Z,0.00
2022-10-11T03:27:37.337Z,0.00
2022-10-11T03:28:37.367Z,0.00
2022-10-11T03:29:37.309Z,0.00
2022-10-11T03:30:37.351Z,0.00
2022-10-11T03:31:37.293Z,0.00
2022-10-11T03:32:37.247Z,0.00
2022-10-11T03:33:37.246Z,0.00
2022-10-11T03:34:37.242Z,0.00
2022-10-11T03:35:37.249Z,0.00
2022-10-11T03:36:37.193Z,0.00
2022-10-11T03:37:37.186Z,0.00
2022-10-11T03:38:37.173Z,0.00
2022-10-11T03:39:37.128Z,0.00
2022-10-11T03:40:37.150Z,0.00
2022-10-11T03:41:37.141Z,0.00
2022-10-11T03:42:37.098Z,0.00
2022-10-11T03:43:37.072Z,0.00
2022-10-11T03:44:37.055Z,0.00
2022-10-11T03:45:37.078Z,0.00
2022-10-11T03:46:37.050Z,0.00
2022-10-11T03:47:36.995Z,0.00
2022-10-11T03:48:37.013Z,0.00
2022-10-11T03:49:41.348Z,0.00
2022-10-11T03:50:39.031Z,0.00
2022-10-11T03:51:36.937Z,0.00
2022-10-11T03:52:36.923Z,0.00
2022-10-11T03:53:36.918Z,0.00
2022-10-11T03:54:36.894Z,0.00
2022-10-11T03:55:36.898Z,0.00
2022-10-11T03:56:36.850Z,0.00
2022-10-11T03:57:36.835Z,0.00
2022-10-11T03:58:36.812Z,0.00
2022-10-11T03:59:36.814Z,0.00
2022-10-11T04:00:36.821Z,0.00
2022-10-11T04:01:36.864Z,0.00
2022-10-11T04:02:39.186Z,0.00
2022-10-11T04:03:37.741Z,0.00
2022-10-11T04:04:36.728Z,0.00
2022-10-11T04:05:36.726Z,0.00
2022-10-11T04:06:36.667Z,0.00
2022-10-11T04:07:36.668Z,0.00
2022-10-11T04:08:36.642Z,0.00
2022-10-11T04:09:36.641Z,0.00
2022-10-11T04:10:36.645Z,0.00
2022-10-11T04:11:36.596Z,0.00
2022-10-11T04:12:36.570Z,0.00
2022-10-11T04:13:36.553Z,0.00
2022-10-11T04:14:36.540Z,0.00
2022-10-11T04:15:36.517Z,0.00
2022-10-11T04:16:36.535Z,0.00
2022-10-11T04:17:36.492Z,0.00
2022-10-11T04:18:36.465Z,0.00
2022-10-11T04:19:36.482Z,0.00
2022-10-11T04:20:36.429Z,0.00
2022-10-11T04:21:36.443Z,0.00
2022-10-11T04:22:36.406Z,0.00
2022-10-11T04:23:36.396Z,0.00
2022-10-11T04:24:36.363Z,0.00
2022-10-11T04:25:36.336Z,0.00
2022-10-11T04:26:37.385Z,0.00
2022-10-11T04:27:36.310Z,0.00
2022-10-11T04:28:36.355Z,0.00
2022-10-11T04:29:36.291Z,0.00
2022-10-11T04:30:36.272Z,0.00
2022-10-11T04:31:36.289Z,0.00
2022-10-11T04:32:36.242Z,0.00
2022-10-11T04:33:36.251Z,0.00
2022-10-11T04:34:36.206Z,0.00
2022-10-11T04:35:36.175Z,0.00
2022-10-11T04:36:36.217Z,0.00
2022-10-11T04:37:36.145Z,0.00
2022-10-11T04:38:36.138Z,0.00
2022-10-11T04:39:36.146Z,0.00
2022-10-11T04:40:36.140Z,0.00
2022-10-11T04:41:36.095Z,0.00
2022-10-11T04:42:36.110Z,0.00
2022-10-11T04:43:36.085Z,0.00
2022-10-11T04:44:36.069Z,0.00
2022-10-11T04:45:36.075Z,0.00
2022-10-11T04:46:36.022Z,0.00
2022-10-11T04:47:35.985Z,0.00
2022-10-11T04:48:35.962Z,0.00
2022-10-11T04:49:35.945Z,0.00
2022-10-11T04:50:35.999Z,0.00
2022-10-11T04:51:35.961Z,0.00
2022-10-11T04:52:35.887Z,0.00
2022-10-11T04:53:35.877Z,0.00
2022-10-11T04:54:35.883Z,0.00
2022-10-11T04:55:35.876Z,0.00
2022-10-11T04:56:35.859Z,0.00
2022-10-11T04:57:35.833Z,0.00
2022-10-11T04:58:35.809Z,0.00
2022-10-11T04:59:35.791Z,0.00
2022-10-11T05:00:35.847Z,0.00
2022-10-11T05:01:35.785Z,0.00
2022-10-11T05:02:35.726Z,0.00
2022-10-11T05:03:35.716Z,0.00
2022-10-11T05:04:35.712Z,0.00
2022-10-11T05:05:35.713Z,0.00
2022-10-11T05:06:36.673Z,0.00
2022-10-11T05:07:35.633Z,0.00
2022-10-11T05:08:35.628Z,0.00
2022-10-11T05:09:35.608Z,0.00
2022-10-11T05:10:35.636Z,0.00
2022-10-11T05:11:35.584Z,0.00
2022-10-11T05:12:35.570Z,0.00
2022-10-11T05:13:35.564Z,0.00
2022-10-11T05:14:35.549Z,0.00
2022-10-11T05:15:35.546Z,0.00
2022-10-11T05:16:35.500Z,0.00
2022-10-11T05:17:35.495Z,0.00
2022-10-11T05:18:35.482Z,0.00
2022-10-11T05:19:35.434Z,0.00
2022-10-11T05:20:35.462Z,0.00
2022-10-11T05:21:35.417Z,0.00
2022-10-11T05:22:35.376Z,0.00
2022-10-11T05:23:35.394Z,0.00
2022-10-11T05:24:35.361Z,0.00
2022-10-11T05:25:35.385Z,0.00
2022-10-11T05:26:35.321Z,0.00
2022-10-11T05:27:35.293Z,0.00
2022-10-11T05:28:35.311Z,0.00
2022-10-11T05:29:35.272Z,0.00
2022-10-11T05:30:35.282Z,0.00
2022-10-11T05:31:35.230Z,0.00
2022-10-11T05:32:35.212Z,0.00
2022-10-11T05:33:35.249Z,5.62
2022-10-11T05:34:35.193Z,5.62
2022-10-11T05:35:35.222Z,5.62
2022-10-11T05:36:35.169Z,5.62
2022-10-11T05:37:35.135Z,5.62
2022-10-11T05:38:35.119Z,5.62
2022-10-11T05:39:35.086Z,5.62
2022-10-11T05:40:35.119Z,5.62
2022-10-11T05:41:35.073Z,11.25
2022-10-11T05:42:35.032Z,11.25
2022-10-11T05:43:35.061Z,11.25
2022-10-11T05:44:35.008Z,11.25
2022-10-11T05:45:34.974Z,16.88
2022-10-11T05:46:35.040Z,16.88
2022-10-11T05:47:34.954Z,22.50
2022-10-11T05:48:34.938Z,28.12
2022-10-11T05:49:34.926Z,28.12
2022-10-11T05:50:34.904Z,33.75
2022-10-11T05:51:34.919Z,39.38
2022-10-11T05:52:34.894Z,45.00
2022-10-11T05:53:34.851Z,39.38
2022-10-11T05:54:35.878Z,45.00
2022-10-11T05:55:34.822Z,45.00
2022-10-11T05:56:34.832Z,45.00
2022-10-11T05:57:34.769Z,50.62
2022-10-11T05:58:34.799Z,56.25
2022-10-11T05:59:34.766Z,56.25
2022-10-11T06:00:34.748Z,56.25
2022-10-11T06:01:34.861Z,67.50
2022-10-11T06:02:34.713Z,78.75
2022-10-11T06:03:34.722Z,73.12
2022-10-11T06:04:34.680Z,78.75
2022-10-11T06:05:34.640Z,106.88
2022-10-11T06:06:34.653Z,106.88
2022-10-11T06:07:34.636Z,90.00
2022-10-11T06:08:34.674Z,84.38
2022-10-11T06:09:34.595Z,84.38
2022-10-11T06:10:34.581Z,90.00
2022-10-11T06:11:34.625Z,101.25
2022-10-11T06:12:34.522Z,101.25
2022-10-11T06:13:34.526Z,90.00
2022-10-11T06:14:34.481Z,95.62
2022-10-11T06:15:34.510Z,106.88
2022-10-11T06:16:34.482Z,118.12
2022-10-11T06:17:34.426Z,123.75
2022-10-11T06:18:34.433Z,151.88
2022-10-11T06:19:34.407Z,168.75
2022-10-11T06:20:34.420Z,174.38
2022-10-11T06:21:34.407Z,151.88
2022-10-11T06:22:34.381Z,135.00
2022-10-11T06:23:34.356Z,129.38
2022-10-11T06:24:34.342Z,106.88
2022-10-11T06:25:34.304Z,118.12
2022-10-11T06:26:34.379Z,118.12
2022-10-11T06:27:34.268Z,129.38
2022-10-11T06:28:34.352Z,157.50
2022-10-11T06:29:34.249Z,163.12
2022-10-11T06:30:34.219Z,163.12
2022-10-11T06:31:34.219Z,219.38
2022-10-11T06:32:34.174Z,225.00
2022-10-11T06:33:34.158Z,208.12
2022-10-11T06:34:34.161Z,264.38
2022-10-11T06:35:34.194Z,337.50
2022-10-11T06:36:34.222Z,292.50
2022-10-11T06:37:34.136Z,253.12
2022-10-11T06:38:34.205Z,213.75
2022-10-11T06:39:34.063Z,174.38
2022-10-11T06:40:34.051Z,191.25
2022-10-11T06:41:34.072Z,180.00
2022-10-11T06:42:33.990Z,168.75
2022-10-11T06:43:33.979Z,168.75
2022-10-11T06:44:33.981Z,163.12
2022-10-11T06:45:33.977Z,157.50
2022-10-11T06:46:33.973Z,157.50
2022-10-11T06:47:33.915Z,163.12
2022-10-11T06:48:33.922Z,185.62
2022-10-11T06:49:33.879Z,225.00
2022-10-11T06:50:57.865Z,286.88
2022-10-11T06:51:35.879Z,253.12
2022-10-11T06:52:33.850Z,230.62
2022-10-11T06:53:33.813Z,236.25
2022-10-11T06:54:33.805Z,225.00
2022-10-11T06:55:33.783Z,191.25
2022-10-11T06:56:33.813Z,185.62
2022-10-11T06:57:33.744Z,185.62
2022-10-11T06:58:33.778Z,202.50
2022-10-11T06:59:33.720Z,185.62
2022-10-11T07:00:33.723Z,174.38
2022-10-11T07:01:33.782Z,151.88
2022-10-11T07:02:33.679Z,163.12
2022-10-11T07:03:33.648Z,219.38
2022-10-11T07:04:33.623Z,247.50
2022-10-11T07:05:33.617Z,225.00
2022-10-11T07:06:33.615Z,270.00
2022-10-11T07:07:33.579Z,337.50
2022-10-11T07:08:33.566Z,354.38
2022-10-11T07:09:33.540Z,348.75
2022-10-11T07:10:33.510Z,326.25
2022-10-11T07:11:33.549Z,270.00
2022-10-11T07:12:33.498Z,236.25
2022-10-11T07:13:33.471Z,202.50
2022-10-11T07:14:33.443Z,230.62
2022-10-11T07:15:33.497Z,253.12
2022-10-11T07:16:33.453Z,275.62
2022-10-11T07:17:33.427Z,253.12
2022-10-11T07:18:33.393Z,213.75
2022-10-11T07:19:33.370Z,185.62
2022-10-11T07:20:33.354Z,168.75
2022-10-11T07:21:33.369Z,174.38
2022-10-11T07:22:33.328Z,208.12
2022-10-11T07:23:33.290Z,247.50
2022-10-11T07:24:33.332Z,253.12
2022-10-11T07:25:33.265Z,213.75
2022-10-11T07:26:38.961Z,213.75
2022-10-11T07:27:35.237Z,213.75
2022-10-11T07:28:33.335Z,236.25
2022-10-11T07:29:33.180Z,253.12
2022-10-11T07:30:33.221Z,292.50
2022-10-11T07:31:33.230Z,393.75
2022-10-11T07:32:33.140Z,523.12
2022-10-11T07:33:33.148Z,528.75
2022-10-11T07:34:33.159Z,461.25
2022-10-11T07:35:33.085Z,393.75
2022-10-11T07:36:33.143Z,320.62
2022-10-11T07:37:33.081Z,292.50
2022-10-11T07:38:33.082Z,298.12
2022-10-11T07:39:33.065Z,388.12
2022-10-11T07:40:33.025Z,444.38
2022-10-11T07:41:33.032Z,450.00
2022-10-11T07:42:32.984Z,433.12
2022-10-11T07:43:32.967Z,365.62
2022-10-11T07:44:32.948Z,331.88
2022-10-11T07:45:32.959Z,354.38
2022-10-11T07:46:32.946Z,410.62
2022-10-11T07:47:32.878Z,421.88
2022-10-11T07:48:32.878Z,517.50
2022-10-11T07:49:32.966Z,669.38
2022-10-11T07:50:32.827Z,646.88
2022-10-11T07:51:32.892Z,540.00
2022-10-11T07:52:32.781Z,438.75
2022-10-11T07:53:32.788Z,466.88
2022-10-11T07:54:32.766Z,635.62
2022-10-11T07:55:32.751Z,866.25
2022-10-11T07:56:32.776Z,978.75
2022-10-11T07:57:32.714Z,579.38
2022-10-11T07:58:32.712Z,534.38
2022-10-11T07:59:32.675Z,478.12
2022-10-11T08:00:32.749Z,472.50
2022-10-11T08:01:32.757Z,556.88
2022-10-11T08:02:32.658Z,635.62
2022-10-11T08:03:32.648Z,556.88
2022-10-11T08:04:32.577Z,506.25
2022-10-11T08:05:32.561Z,427.50
2022-10-11T08:06:32.868Z,343.12
2022-10-11T08:07:32.545Z,388.12
2022-10-11T08:08:32.523Z,517.50
2022-10-11T08:09:32.518Z,630.00
2022-10-11T08:10:32.492Z,748.12
2022-10-11T08:11:32.526Z,860.62
2022-10-11T08:12:32.475Z,1035.00
2022-10-11T08:13:32.460Z,1906.88
2022-10-11T08:14:32.413Z,883.12
2022-10-11T08:15:32.407Z,495.00
2022-10-11T08:16:32.431Z,405.00
2022-10-11T08:17:32.365Z,365.62
2022-10-11T08:18:32.365Z,331.88
2022-10-11T08:19:32.367Z,264.38
2022-10-11T08:20:32.352Z,236.25
2022-10-11T08:21:32.364Z,241.88
2022-10-11T08:22:32.268Z,270.00
2022-10-11T08:23:32.287Z,264.38
2022-10-11T08:24:37.305Z,247.50
2022-10-11T08:25:34.248Z,230.62
2022-10-11T08:26:32.245Z,225.00
2022-10-11T08:27:32.200Z,213.75
2022-10-11T08:28:32.238Z,225.00
2022-10-11T08:29:32.162Z,258.75
2022-10-11T08:30:32.171Z,264.38
2022-10-11T08:31:32.161Z,343.12
2022-10-11T08:32:32.106Z,371.25
2022-10-11T08:33:32.105Z,382.50
2022-10-11T08:34:32.083Z,365.62
2022-10-11T08:35:32.095Z,326.25
2022-10-11T08:36:32.086Z,303.75
2022-10-11T08:37:32.027Z,303.75
2022-10-11T08:38:32.057Z,309.38
2022-10-11T08:39:32.004Z,337.50
2022-10-11T08:40:35.300Z,326.25
2022-10-11T08:41:33.010Z,292.50
2022-10-11T08:42:31.945Z,275.62
2022-10-11T08:43:31.945Z,264.38
2022-10-11T08:44:51.824Z,281.25
2022-10-11T08:45:33.885Z,320.62
2022-10-11T08:46:31.951Z,371.25
2022-10-11T08:47:31.881Z,455.62
2022-10-11T08:48:31.862Z,461.25
2022-10-11T08:49:31.835Z,388.12
2022-10-11T08:50:31.873Z,331.88
2022-10-11T08:51:31.840Z,286.88
2022-10-11T08:52:31.801Z,281.25
2022-10-11T08:53:31.773Z,258.75
2022-10-11T08:54:31.768Z,258.75
2022-10-11T08:55:31.807Z,258.75
2022-10-11T08:56:31.743Z,258.75
2022-10-11T08:57:31.730Z,275.62
2022-10-11T08:58:31.728Z,292.50
2022-10-11T08:59:31.688Z,337.50
2022-10-11T09:00:31.641Z,410.62
2022-10-11T09:01:31.701Z,506.25
2022-10-11T09:02:49.315Z,540.00
2022-10-11T09:03:33.607Z,545.62
2022-10-11T09:04:31.598Z,466.88
2022-10-11T09:05:31.529Z,427.50
2022-10-11T09:06:31.554Z,444.38
2022-10-11T09:07:31.527Z,472.50
2022-10-11T09:08:31.487Z,534.38
2022-10-11T09:09:31.454Z,495.00
2022-10-11T09:10:31.494Z,410.62
2022-10-11T09:11:31.458Z,382.50
2022-10-11T09:12:34.245Z,365.62
2022-10-11T09:13:32.413Z,376.88
2022-10-11T09:14:31.386Z,388.12
2022-10-11T09:15:31.359Z,393.75
2022-10-11T09:16:31.404Z,399.38
2022-10-11T09:17:31.510Z,416.25
2022-10-11T09:18:31.310Z,450.00
2022-10-11T09:19:31.308Z,483.75
2022-10-11T09:20:31.286Z,528.75
2022-10-11T09:21:31.321Z,551.25
2022-10-11T09:22:31.249Z,551.25
2022-10-11T09:23:31.230Z,540.00
2022-10-11T09:24:31.231Z,540.00
2022-10-11T09:25:31.199Z,545.62
2022-10-11T09:26:31.223Z,568.12
2022-10-11T09:27:50.212Z,579.38
2022-10-11T09:28:33.214Z,568.12
2022-10-11T09:29:31.149Z,601.88
2022-10-11T09:30:31.143Z,663.75
2022-10-11T09:31:31.152Z,686.25
2022-10-11T09:32:31.118Z,691.88
2022-10-11T09:33:31.094Z,725.62
2022-10-11T09:34:31.055Z,832.50
2022-10-11T09:35:31.101Z,815.62
2022-10-11T09:36:31.082Z,877.50
2022-10-11T09:37:31.013Z,725.62
2022-10-11T09:38:31.030Z,720.00
2022-10-11T09:39:31.019Z,731.25
2022-10-11T09:40:30.952Z,703.12
2022-10-11T09:41:31.002Z,675.00
2022-10-11T09:42:30.947Z,776.25
2022-10-11T09:43:30.911Z,967.50
2022-10-11T09:44:30.907Z,1080.00
2022-10-11T09:45:30.961Z,1198.12
2022-10-11T09:46:30.890Z,1434.38
2022-10-11T09:47:30.837Z,3532.50
2022-10-11T09:48:30.818Z,2716.88
2022-10-11T09:49:44.443Z,2626.88
2022-10-11T09:50:32.813Z,1496.25
2022-10-11T09:51:30.846Z,1338.75
2022-10-11T09:52:30.761Z,1642.50
2022-10-11T09:53:30.746Z,3825.00
2022-10-11T09:54:30.796Z,2700.00
2022-10-11T09:55:31.699Z,2446.88
2022-10-11T09:56:30.741Z,2098.12
2022-10-11T09:57:30.673Z,1271.25
2022-10-11T09:58:30.660Z,995.62
2022-10-11T09:59:30.662Z,961.88
2022-10-11T10:00:30.627Z,877.50
2022-10-11T10:01:30.692Z,821.25
2022-10-11T10:02:30.603Z,770.62
2022-10-11T10:03:30.562Z,731.25
2022-10-11T10:04:30.576Z,736.88
2022-10-11T10:05:30.552Z,793.12
2022-10-11T10:06:30.577Z,843.75
2022-10-11T10:07:30.538Z,883.12
2022-10-11T10:08:30.489Z,911.25
2022-10-11T10:09:30.471Z,945.00
2022-10-11T10:10:30.459Z,1012.50
2022-10-11T10:11:30.462Z,1305.00
2022-10-11T10:12:30.420Z,1203.75
2022-10-11T10:13:30.422Z,1091.25
2022-10-11T10:14:30.381Z,945.00
2022-10-11T10:15:30.369Z,905.62
2022-10-11T10:16:30.428Z,860.62
2022-10-11T10:17:30.318Z,843.75
2022-10-11T10:18:30.363Z,883.12
2022-10-11T10:19:30.305Z,1018.12
2022-10-11T10:20:30.320Z,3043.12
2022-10-11T10:21:30.314Z,2160.00
2022-10-11T10:22:30.293Z,3048.75
2022-10-11T10:23:30.249Z,2874.38
2022-10-11T10:24:30.247Z,3082.50
2022-10-11T10:25:30.225Z,2778.75
2022-10-11T10:26:30.207Z,3161.25
2022-10-11T10:27:30.194Z,1946.25
2022-10-11T10:28:30.179Z,3645.00
2022-10-11T10:29:30.114Z,3532.50
2022-10-11T10:30:35.252Z,3555.00
2022-10-11T10:31:44.178Z,3549.38
2022-10-11T10:32:31.111Z,3538.12
2022-10-11T10:33:30.074Z,3285.00
2022-10-11T10:34:30.084Z,2041.88
2022-10-11T10:35:30.013Z,3346.88
2022-10-11T10:36:30.038Z,3420.00
2022-10-11T10:37:29.988Z,3825.00
2022-10-11T10:38:30.021Z,3448.12
2022-10-11T10:39:29.958Z,2418.75
2022-10-11T10:40:29.925Z,2638.12
2022-10-11T10:41:29.985Z,1501.88
2022-10-11T10:42:29.897Z,1445.62
2022-10-11T10:43:29.904Z,1006.88
2022-10-11T10:44:29.866Z,1012.50
2022-10-11T10:45:29.878Z,1068.75
2022-10-11T10:46:29.894Z,1591.88
2022-10-11T10:47:29.934Z,933.75
2022-10-11T10:48:41.722Z,894.38
2022-10-11T10:50:31.786Z,832.50
2022-10-11T10:51:29.881Z,922.50
2022-10-11T10:52:29.751Z,905.62
2022-10-11T10:53:29.736Z,849.38
2022-10-11T10:54:29.735Z,798.75
2022-10-11T10:55:29.704Z,776.25
2022-10-11T10:56:29.729Z,731.25
2022-10-11T10:57:29.686Z,686.25
2022-10-11T10:58:29.646Z,663.75
2022-10-11T10:59:30.325Z,652.50
2022-10-11T11:00:29.643Z,618.75
2022-10-11T11:01:29.694Z,618.75
2022-10-11T11:02:40.228Z,607.50
2022-10-11T11:03:31.580Z,613.12
2022-10-11T11:04:29.559Z,618.75
2022-10-11T11:05:29.531Z,613.12
2022-10-11T11:06:32.825Z,601.88
2022-10-11T11:07:30.535Z,607.50
2022-10-11T11:08:29.490Z,613.12
2022-10-11T11:09:29.466Z,613.12
2022-10-11T11:10:29.424Z,613.12
2022-10-11T11:11:29.473Z,624.38
2022-10-11T11:12:29.413Z,641.25
2022-10-11T11:13:29.429Z,652.50
2022-10-11T11:14:29.423Z,663.75
2022-10-11T11:15:32.655Z,669.38
2022-10-11T11:16:31.418Z,860.62
2022-10-11T11:17:29.320Z,905.62
2022-10-11T11:18:29.310Z,894.38
2022-10-11T11:19:29.282Z,855.00
2022-10-11T11:20:29.296Z,843.75
2022-10-11T11:21:29.283Z,815.62
2022-10-11T11:22:32.729Z,765.00
2022-10-11T11:23:30.240Z,826.88
2022-10-11T11:24:29.197Z,804.38
2022-10-11T11:25:29.198Z,810.00
2022-10-11T11:26:29.206Z,815.62
2022-10-11T11:27:29.144Z,815.62
2022-10-11T11:28:29.138Z,838.12
2022-10-11T11:29:29.097Z,826.88
2022-10-11T11:30:29.094Z,810.00
2022-10-11T11:31:29.114Z,759.38
2022-10-11T11:32:29.058Z,720.00
2022-10-11T11:33:29.058Z,697.50
2022-10-11T11:34:29.032Z,703.12
2022-10-11T11:35:29.003Z,736.88
2022-10-11T11:36:29.038Z,736.88
2022-10-11T11:37:29.012Z,720.00
2022-10-11T11:38:29.881Z,720.00
2022-10-11T11:39:29.977Z,686.25
2022-10-11T11:40:28.922Z,646.88
2022-10-11T11:41:28.905Z,641.25
2022-10-11T11:42:28.932Z,613.12
2022-10-11T11:43:28.868Z,556.88
2022-10-11T11:44:28.881Z,540.00
2022-10-11T11:45:28.835Z,528.75
2022-10-11T11:46:28.838Z,523.12
2022-10-11T11:47:28.850Z,517.50
2022-10-11T11:48:28.809Z,545.62
2022-10-11T11:49:28.832Z,585.00
2022-10-11T11:50:30.506Z,596.25
2022-10-11T11:51:30.652Z,607.50
2022-10-11T11:52:28.783Z,641.25
2022-10-11T11:53:28.708Z,669.38
2022-10-11T11:54:28.707Z,680.62
2022-10-11T11:55:28.690Z,680.62
2022-10-11T11:56:28.658Z,675.00
2022-10-11T11:57:28.708Z,680.62
2022-10-11T11:58:28.655Z,624.38
2022-10-11T11:59:28.642Z,556.88
2022-10-11T12:00:28.628Z,545.62
2022-10-11T12:01:31.312Z,545.62
2022-10-11T12:02:29.620Z,523.12
2022-10-11T12:03:28.526Z,511.88
2022-10-11T12:04:28.588Z,511.88
2022-10-11T12:05:28.511Z,511.88
2022-10-11T12:06:28.560Z,534.38
2022-10-11T12:07:28.523Z,562.50
2022-10-11T12:08:28.454Z,585.00
2022-10-11T12:09:28.466Z,590.62
2022-10-11T12:10:28.428Z,590.62
2022-10-11T12:11:31.777Z,579.38
2022-10-11T12:12:30.487Z,562.50
2022-10-11T12:13:32.243Z,545.62
2022-10-11T12:14:29.413Z,489.38
2022-10-11T12:15:28.348Z,483.75
2022-10-11T12:16:28.324Z,461.25
2022-10-11T12:17:28.332Z,444.38
2022-10-11T12:18:28.335Z,444.38
2022-10-11T12:19:28.287Z,421.88
2022-10-11T12:20:28.278Z,421.88
2022-10-11T12:21:28.264Z,433.12
2022-10-11T12:22:28.267Z,433.12
2022-10-11T12:23:28.235Z,421.88
2022-10-11T12:24:28.194Z,421.88
2022-10-11T12:25:28.208Z,416.25
2022-10-11T12:26:28.181Z,410.62
2022-10-11T12:27:28.196Z,410.62
2022-10-11T12:28:28.211Z,444.38
2022-10-11T12:29:29.257Z,433.12
2022-10-11T12:30:29.157Z,444.38
2022-10-11T12:31:28.071Z,455.62
2022-10-11T12:32:28.107Z,466.88
2022-10-11T12:33:28.091Z,461.25
2022-10-11T12:34:28.095Z,433.12
2022-10-11T12:35:28.080Z,427.50
2022-10-11T12:36:28.025Z,427.50
2022-10-11T12:37:28.019Z,433.12
2022-10-11T12:38:27.980Z,438.75
2022-10-11T12:39:27.951Z,433.12
2022-10-11T12:40:27.945Z,438.75
2022-10-11T12:41:27.957Z,461.25
2022-10-11T12:42:27.971Z,444.38
2022-10-11T12:43:27.897Z,461.25
2022-10-11T12:44:27.858Z,455.62
2022-10-11T12:45:27.864Z,461.25
2022-10-11T12:46:27.846Z,472.50
2022-10-11T12:47:27.854Z,478.12
2022-10-11T12:48:33.230Z,472.50
2022-10-11T12:49:29.836Z,472.50
2022-10-11T12:50:27.788Z,478.12